sensor_id;sensor_type;location;lat;lon;timestamp;P1;durP1;ratioP1;P2;durP2;ratioP2
8327;SDS011;4201;48.754;8.864;2024-03-08T00:02:04;40.37;;;27.80;;
8327;SDS011;4201;48.754;8.864;2024-03-08T00:04:30;45.17;;;28.10;;
8327;SDS011;4201;48.754;8.864;2024-03-08T00:06:56;47.37;;;28.50;;
8327;SDS011;4201;48.754;8.864;2024-03-08T00:09:22;43.77;;;28.20;;
8327;SDS011;4201;48.754;8.864;2024-03-08T00:11:49;41.93;;;27.23;;
8327;SDS011;4201;48.754;8.864;2024-03-08T00:14:17;49.93;;;28.10;;
8327;SDS011;4201;48.754;8.864;2024-03-08T00:16:43;45.40;;;27.27;;
8327;SDS011;4201;48.754;8.864;2024-03-08T00:19:11;42.93;;;28.73;;
8327;SDS011;4201;48.754;8.864;2024-03-08T00:21:37;43.30;;;26.33;;
8327;SDS011;4201;48.754;8.864;2024-03-08T00:24:03;43.93;;;28.27;;
8327;SDS011;4201;48.754;8.864;2024-03-08T00:26:29;45.30;;;28.87;;
8327;SDS011;4201;48.754;8.864;2024-03-08T00:28:55;41.87;;;25.30;;
8327;SDS011;4201;48.754;8.864;2024-03-08T00:31:21;49.90;;;27.77;;
8327;SDS011;4201;48.754;8.864;2024-03-08T00:33:47;47.27;;;28.83;;
8327;SDS011;4201;48.754;8.864;2024-03-08T00:36:15;46.43;;;28.93;;
8327;SDS011;4201;48.754;8.864;2024-03-08T00:38:41;43.70;;;30.00;;
8327;SDS011;4201;48.754;8.864;2024-03-08T00:41:07;40.60;;;26.13;;
8327;SDS011;4201;48.754;8.864;2024-03-08T00:43:33;41.57;;;27.13;;
8327;SDS011;4201;48.754;8.864;2024-03-08T00:46:00;47.07;;;30.07;;
8327;SDS011;4201;48.754;8.864;2024-03-08T00:48:27;47.50;;;29.90;;
8327;SDS011;4201;48.754;8.864;2024-03-08T00:50:53;48.90;;;30.27;;
8327;SDS011;4201;48.754;8.864;2024-03-08T00:53:20;48.40;;;26.73;;
8327;SDS011;4201;48.754;8.864;2024-03-08T00:55:47;43.77;;;27.43;;
8327;SDS011;4201;48.754;8.864;2024-03-08T00:58:14;44.67;;;28.17;;
8327;SDS011;4201;48.754;8.864;2024-03-08T01:00:40;42.80;;;28.03;;
8327;SDS011;4201;48.754;8.864;2024-03-08T01:03:06;45.40;;;28.33;;
8327;SDS011;4201;48.754;8.864;2024-03-08T01:05:32;44.20;;;26.97;;
8327;SDS011;4201;48.754;8.864;2024-03-08T01:08:00;49.53;;;29.33;;
8327;SDS011;4201;48.754;8.864;2024-03-08T01:10:29;44.07;;;27.80;;
8327;SDS011;4201;48.754;8.864;2024-03-08T01:12:55;44.27;;;28.27;;
8327;SDS011;4201;48.754;8.864;2024-03-08T01:15:22;42.27;;;25.40;;
8327;SDS011;4201;48.754;8.864;2024-03-08T01:17:48;52.33;;;32.03;;
8327;SDS011;4201;48.754;8.864;2024-03-08T01:20:15;45.10;;;28.37;;
8327;SDS011;4201;48.754;8.864;2024-03-08T01:22:42;53.10;;;28.90;;
8327;SDS011;4201;48.754;8.864;2024-03-08T01:25:09;48.07;;;28.87;;
8327;SDS011;4201;48.754;8.864;2024-03-08T01:27:36;47.00;;;28.00;;
8327;SDS011;4201;48.754;8.864;2024-03-08T01:30:03;50.83;;;30.57;;
8327;SDS011;4201;48.754;8.864;2024-03-08T01:32:29;48.23;;;32.67;;
8327;SDS011;4201;48.754;8.864;2024-03-08T01:34:56;52.20;;;32.73;;
8327;SDS011;4201;48.754;8.864;2024-03-08T01:37:22;47.50;;;27.37;;
8327;SDS011;4201;48.754;8.864;2024-03-08T01:39:48;44.63;;;27.73;;
8327;SDS011;4201;48.754;8.864;2024-03-08T01:42:14;45.17;;;27.77;;
8327;SDS011;4201;48.754;8.864;2024-03-08T01:44:43;43.37;;;26.77;;
8327;SDS011;4201;48.754;8.864;2024-03-08T01:47:10;47.90;;;30.33;;
8327;SDS011;4201;48.754;8.864;2024-03-08T01:49:37;44.57;;;29.73;;
8327;SDS011;4201;48.754;8.864;2024-03-08T01:52:04;55.53;;;29.13;;
8327;SDS011;4201;48.754;8.864;2024-03-08T01:54:30;44.10;;;28.33;;
8327;SDS011;4201;48.754;8.864;2024-03-08T01:56:57;46.07;;;28.70;;
8327;SDS011;4201;48.754;8.864;2024-03-08T01:59:23;46.03;;;29.33;;
8327;SDS011;4201;48.754;8.864;2024-03-08T02:01:53;49.20;;;30.13;;
8327;SDS011;4201;48.754;8.864;2024-03-08T02:04:20;50.03;;;29.23;;
8327;SDS011;4201;48.754;8.864;2024-03-08T02:06:47;59.30;;;28.30;;
8327;SDS011;4201;48.754;8.864;2024-03-08T02:09:14;42.30;;;27.10;;
8327;SDS011;4201;48.754;8.864;2024-03-08T02:11:42;44.47;;;27.67;;
8327;SDS011;4201;48.754;8.864;2024-03-08T02:14:08;46.10;;;26.83;;
8327;SDS011;4201;48.754;8.864;2024-03-08T02:16:36;47.83;;;27.40;;
8327;SDS011;4201;48.754;8.864;2024-03-08T02:19:04;47.40;;;27.43;;
8327;SDS011;4201;48.754;8.864;2024-03-08T02:21:36;50.90;;;29.33;;
8327;SDS011;4201;48.754;8.864;2024-03-08T02:24:03;64.83;;;29.50;;
8327;SDS011;4201;48.754;8.864;2024-03-08T02:26:29;46.80;;;27.00;;
8327;SDS011;4201;48.754;8.864;2024-03-08T02:28:55;39.90;;;24.80;;
8327;SDS011;4201;48.754;8.864;2024-03-08T02:31:22;47.93;;;28.00;;
8327;SDS011;4201;48.754;8.864;2024-03-08T02:33:48;50.00;;;29.67;;
8327;SDS011;4201;48.754;8.864;2024-03-08T02:36:14;50.23;;;28.03;;
8327;SDS011;4201;48.754;8.864;2024-03-08T02:38:42;47.20;;;28.30;;
8327;SDS011;4201;48.754;8.864;2024-03-08T02:41:08;50.20;;;29.63;;
8327;SDS011;4201;48.754;8.864;2024-03-08T02:43:35;47.07;;;27.00;;
8327;SDS011;4201;48.754;8.864;2024-03-08T02:46:01;53.07;;;28.60;;
8327;SDS011;4201;48.754;8.864;2024-03-08T02:48:27;51.10;;;31.63;;
8327;SDS011;4201;48.754;8.864;2024-03-08T02:50:54;45.10;;;25.07;;
8327;SDS011;4201;48.754;8.864;2024-03-08T02:53:20;50.33;;;29.23;;
8327;SDS011;4201;48.754;8.864;2024-03-08T02:55:48;48.23;;;30.03;;
8327;SDS011;4201;48.754;8.864;2024-03-08T02:58:14;41.10;;;27.80;;
8327;SDS011;4201;48.754;8.864;2024-03-08T03:00:41;47.03;;;26.77;;
8327;SDS011;4201;48.754;8.864;2024-03-08T03:03:09;42.53;;;25.63;;
8327;SDS011;4201;48.754;8.864;2024-03-08T03:05:35;50.90;;;28.90;;
8327;SDS011;4201;48.754;8.864;2024-03-08T03:08:02;46.67;;;27.80;;
8327;SDS011;4201;48.754;8.864;2024-03-08T03:10:29;44.27;;;27.10;;
8327;SDS011;4201;48.754;8.864;2024-03-08T03:12:57;44.17;;;26.20;;
8327;SDS011;4201;48.754;8.864;2024-03-08T03:15:23;42.97;;;26.53;;
8327;SDS011;4201;48.754;8.864;2024-03-08T03:17:50;50.77;;;29.53;;
8327;SDS011;4201;48.754;8.864;2024-03-08T03:20:16;45.97;;;27.30;;
8327;SDS011;4201;48.754;8.864;2024-03-08T03:22:48;55.67;;;27.20;;
8327;SDS011;4201;48.754;8.864;2024-03-08T03:25:16;44.60;;;26.70;;
8327;SDS011;4201;48.754;8.864;2024-03-08T03:27:48;49.33;;;27.87;;
8327;SDS011;4201;48.754;8.864;2024-03-08T03:30:16;49.20;;;26.87;;
8327;SDS011;4201;48.754;8.864;2024-03-08T03:32:48;46.83;;;26.77;;
8327;SDS011;4201;48.754;8.864;2024-03-08T03:35:16;48.20;;;28.97;;
8327;SDS011;4201;48.754;8.864;2024-03-08T03:37:42;45.23;;;26.50;;
8327;SDS011;4201;48.754;8.864;2024-03-08T03:40:10;43.13;;;25.20;;
8327;SDS011;4201;48.754;8.864;2024-03-08T03:42:38;44.67;;;26.63;;
8327;SDS011;4201;48.754;8.864;2024-03-08T03:45:05;54.80;;;28.20;;
8327;SDS011;4201;48.754;8.864;2024-03-08T03:47:32;47.60;;;27.50;;
8327;SDS011;4201;48.754;8.864;2024-03-08T03:49:59;41.80;;;25.40;;
8327;SDS011;4201;48.754;8.864;2024-03-08T03:52:27;49.00;;;28.50;;
8327;SDS011;4201;48.754;8.864;2024-03-08T03:54:53;43.67;;;27.77;;
8327;SDS011;4201;48.754;8.864;2024-03-08T03:57:19;42.27;;;26.13;;
8327;SDS011;4201;48.754;8.864;2024-03-08T03:59:48;44.30;;;26.70;;
8327;SDS011;4201;48.754;8.864;2024-03-08T04:02:14;42.83;;;26.13;;
8327;SDS011;4201;48.754;8.864;2024-03-08T04:04:42;42.77;;;27.03;;
8327;SDS011;4201;48.754;8.864;2024-03-08T04:07:09;41.23;;;25.67;;
8327;SDS011;4201;48.754;8.864;2024-03-08T04:09:36;51.07;;;28.70;;
8327;SDS011;4201;48.754;8.864;2024-03-08T04:12:02;42.23;;;26.37;;
8327;SDS011;4201;48.754;8.864;2024-03-08T04:14:28;45.07;;;25.77;;
8327;SDS011;4201;48.754;8.864;2024-03-08T04:16:54;51.70;;;29.90;;
8327;SDS011;4201;48.754;8.864;2024-03-08T04:19:21;44.40;;;25.30;;
8327;SDS011;4201;48.754;8.864;2024-03-08T04:21:50;48.13;;;25.23;;
8327;SDS011;4201;48.754;8.864;2024-03-08T04:24:16;45.50;;;25.30;;
8327;SDS011;4201;48.754;8.864;2024-03-08T04:26:43;44.07;;;25.37;;
8327;SDS011;4201;48.754;8.864;2024-03-08T04:29:09;43.93;;;26.70;;
8327;SDS011;4201;48.754;8.864;2024-03-08T04:31:36;42.47;;;25.67;;
8327;SDS011;4201;48.754;8.864;2024-03-08T04:34:03;44.30;;;25.80;;
8327;SDS011;4201;48.754;8.864;2024-03-08T04:36:30;42.87;;;26.50;;
8327;SDS011;4201;48.754;8.864;2024-03-08T04:38:57;46.93;;;25.87;;
8327;SDS011;4201;48.754;8.864;2024-03-08T04:41:24;41.70;;;25.33;;
8327;SDS011;4201;48.754;8.864;2024-03-08T04:43:50;56.37;;;27.83;;
8327;SDS011;4201;48.754;8.864;2024-03-08T04:46:17;43.73;;;24.87;;
8327;SDS011;4201;48.754;8.864;2024-03-08T04:48:44;46.60;;;27.30;;
8327;SDS011;4201;48.754;8.864;2024-03-08T04:51:10;50.00;;;26.70;;
8327;SDS011;4201;48.754;8.864;2024-03-08T04:53:36;41.60;;;26.87;;
8327;SDS011;4201;48.754;8.864;2024-03-08T04:56:05;47.30;;;27.80;;
8327;SDS011;4201;48.754;8.864;2024-03-08T04:58:32;52.03;;;28.10;;
8327;SDS011;4201;48.754;8.864;2024-03-08T05:00:59;48.60;;;28.17;;
8327;SDS011;4201;48.754;8.864;2024-03-08T05:03:25;49.30;;;28.83;;
8327;SDS011;4201;48.754;8.864;2024-03-08T05:05:52;48.73;;;27.80;;
8327;SDS011;4201;48.754;8.864;2024-03-08T05:08:18;49.43;;;28.10;;
8327;SDS011;4201;48.754;8.864;2024-03-08T05:10:44;47.17;;;26.60;;
8327;SDS011;4201;48.754;8.864;2024-03-08T05:13:12;45.37;;;28.27;;
8327;SDS011;4201;48.754;8.864;2024-03-08T05:15:39;53.03;;;28.17;;
8327;SDS011;4201;48.754;8.864;2024-03-08T05:18:05;46.90;;;27.93;;
8327;SDS011;4201;48.754;8.864;2024-03-08T05:20:31;46.03;;;26.90;;
8327;SDS011;4201;48.754;8.864;2024-03-08T05:22:58;46.03;;;27.27;;
8327;SDS011;4201;48.754;8.864;2024-03-08T05:25:25;50.53;;;28.23;;
8327;SDS011;4201;48.754;8.864;2024-03-08T05:27:51;47.93;;;28.93;;
8327;SDS011;4201;48.754;8.864;2024-03-08T05:30:19;51.47;;;29.27;;
8327;SDS011;4201;48.754;8.864;2024-03-08T05:32:46;52.23;;;28.90;;
8327;SDS011;4201;48.754;8.864;2024-03-08T05:35:13;52.00;;;29.20;;
8327;SDS011;4201;48.754;8.864;2024-03-08T05:37:41;54.50;;;28.80;;
8327;SDS011;4201;48.754;8.864;2024-03-08T05:40:07;50.43;;;28.70;;
8327;SDS011;4201;48.754;8.864;2024-03-08T05:42:34;48.43;;;28.67;;
8327;SDS011;4201;48.754;8.864;2024-03-08T05:45:01;47.20;;;27.80;;
8327;SDS011;4201;48.754;8.864;2024-03-08T05:47:29;58.80;;;30.50;;
8327;SDS011;4201;48.754;8.864;2024-03-08T05:49:55;51.53;;;30.30;;
8327;SDS011;4201;48.754;8.864;2024-03-08T05:52:21;93.37;;;42.80;;
8327;SDS011;4201;48.754;8.864;2024-03-08T05:54:47;92.27;;;45.00;;
8327;SDS011;4201;48.754;8.864;2024-03-08T05:57:14;89.43;;;41.13;;
8327;SDS011;4201;48.754;8.864;2024-03-08T05:59:40;116.00;;;51.17;;
8327;SDS011;4201;48.754;8.864;2024-03-08T06:02:06;122.87;;;55.80;;
8327;SDS011;4201;48.754;8.864;2024-03-08T06:04:34;108.07;;;49.93;;
8327;SDS011;4201;48.754;8.864;2024-03-08T06:07:00;135.70;;;61.83;;
8327;SDS011;4201;48.754;8.864;2024-03-08T06:09:28;149.80;;;64.77;;
8327;SDS011;4201;48.754;8.864;2024-03-08T06:16:19;59.33;;;33.73;;
8327;SDS011;4201;48.754;8.864;2024-03-08T06:27:37;61.17;;;33.07;;
8327;SDS011;4201;48.754;8.864;2024-03-08T06:30:04;47.33;;;29.50;;
8327;SDS011;4201;48.754;8.864;2024-03-08T06:32:31;50.30;;;26.93;;
8327;SDS011;4201;48.754;8.864;2024-03-08T06:35:00;40.60;;;24.43;;
8327;SDS011;4201;48.754;8.864;2024-03-08T06:37:26;44.10;;;26.10;;
8327;SDS011;4201;48.754;8.864;2024-03-08T06:39:52;44.03;;;25.30;;
8327;SDS011;4201;48.754;8.864;2024-03-08T06:42:20;48.47;;;32.83;;
8327;SDS011;4201;48.754;8.864;2024-03-08T06:44:47;45.80;;;26.73;;
8327;SDS011;4201;48.754;8.864;2024-03-08T06:47:14;43.90;;;28.07;;
8327;SDS011;4201;48.754;8.864;2024-03-08T06:49:41;45.23;;;26.67;;
8327;SDS011;4201;48.754;8.864;2024-03-08T06:52:07;48.27;;;28.30;;
8327;SDS011;4201;48.754;8.864;2024-03-08T06:54:34;46.70;;;26.87;;
8327;SDS011;4201;48.754;8.864;2024-03-08T06:57:00;47.83;;;27.50;;
8327;SDS011;4201;48.754;8.864;2024-03-08T06:59:28;46.50;;;29.20;;
8327;SDS011;4201;48.754;8.864;2024-03-08T07:01:56;48.83;;;28.47;;
8327;SDS011;4201;48.754;8.864;2024-03-08T07:04:22;49.40;;;27.10;;
8327;SDS011;4201;48.754;8.864;2024-03-08T07:06:51;46.97;;;29.13;;
8327;SDS011;4201;48.754;8.864;2024-03-08T07:09:18;40.40;;;25.50;;
8327;SDS011;4201;48.754;8.864;2024-03-08T07:11:44;45.87;;;28.77;;
8327;SDS011;4201;48.754;8.864;2024-03-08T07:14:11;46.40;;;29.37;;
8327;SDS011;4201;48.754;8.864;2024-03-08T07:16:40;56.10;;;28.57;;
8327;SDS011;4201;48.754;8.864;2024-03-08T07:19:07;45.60;;;28.53;;
8327;SDS011;4201;48.754;8.864;2024-03-08T07:21:34;44.53;;;28.37;;
8327;SDS011;4201;48.754;8.864;2024-03-08T07:24:01;44.10;;;27.50;;
8327;SDS011;4201;48.754;8.864;2024-03-08T07:26:44;45.50;;;26.47;;
8327;SDS011;4201;48.754;8.864;2024-03-08T07:29:14;49.77;;;27.87;;
8327;SDS011;4201;48.754;8.864;2024-03-08T07:31:40;43.33;;;26.07;;
8327;SDS011;4201;48.754;8.864;2024-03-08T07:34:17;43.13;;;26.50;;
8327;SDS011;4201;48.754;8.864;2024-03-08T07:36:44;43.90;;;26.33;;
8327;SDS011;4201;48.754;8.864;2024-03-08T07:39:11;47.03;;;27.73;;
8327;SDS011;4201;48.754;8.864;2024-03-08T07:41:38;45.87;;;27.80;;
8327;SDS011;4201;48.754;8.864;2024-03-08T07:44:06;48.23;;;28.97;;
8327;SDS011;4201;48.754;8.864;2024-03-08T07:46:32;50.13;;;29.43;;
8327;SDS011;4201;48.754;8.864;2024-03-08T07:48:59;47.37;;;28.17;;
8327;SDS011;4201;48.754;8.864;2024-03-08T07:51:26;43.53;;;27.93;;
8327;SDS011;4201;48.754;8.864;2024-03-08T07:53:52;45.67;;;29.10;;
8327;SDS011;4201;48.754;8.864;2024-03-08T07:56:19;49.73;;;29.43;;
8327;SDS011;4201;48.754;8.864;2024-03-08T07:58:46;45.50;;;27.87;;
8327;SDS011;4201;48.754;8.864;2024-03-08T08:01:15;41.77;;;27.20;;
8327;SDS011;4201;48.754;8.864;2024-03-08T08:03:41;43.90;;;26.63;;
8327;SDS011;4201;48.754;8.864;2024-03-08T08:06:08;46.40;;;25.80;;
8327;SDS011;4201;48.754;8.864;2024-03-08T08:08:36;50.00;;;29.23;;
8327;SDS011;4201;48.754;8.864;2024-03-08T08:11:02;44.93;;;26.50;;
8327;SDS011;4201;48.754;8.864;2024-03-08T08:13:29;45.03;;;27.37;;
8327;SDS011;4201;48.754;8.864;2024-03-08T08:15:57;45.20;;;30.60;;
8327;SDS011;4201;48.754;8.864;2024-03-08T08:18:23;49.40;;;28.17;;
8327;SDS011;4201;48.754;8.864;2024-03-08T08:20:50;50.00;;;30.50;;
8327;SDS011;4201;48.754;8.864;2024-03-08T08:23:17;43.50;;;28.03;;
8327;SDS011;4201;48.754;8.864;2024-03-08T08:25:45;47.33;;;27.70;;
8327;SDS011;4201;48.754;8.864;2024-03-08T08:28:13;43.80;;;28.43;;
8327;SDS011;4201;48.754;8.864;2024-03-08T08:30:39;45.97;;;27.30;;
8327;SDS011;4201;48.754;8.864;2024-03-08T08:33:06;43.10;;;27.83;;
8327;SDS011;4201;48.754;8.864;2024-03-08T08:35:33;42.47;;;26.43;;
8327;SDS011;4201;48.754;8.864;2024-03-08T08:37:59;43.40;;;26.20;;
8327;SDS011;4201;48.754;8.864;2024-03-08T08:40:26;43.80;;;26.60;;
8327;SDS011;4201;48.754;8.864;2024-03-08T08:42:53;42.17;;;25.60;;
8327;SDS011;4201;48.754;8.864;2024-03-08T08:45:22;39.83;;;25.33;;
8327;SDS011;4201;48.754;8.864;2024-03-08T08:47:48;42.87;;;26.43;;
8327;SDS011;4201;48.754;8.864;2024-03-08T08:50:15;39.53;;;22.80;;
8327;SDS011;4201;48.754;8.864;2024-03-08T08:52:48;38.80;;;23.87;;
8327;SDS011;4201;48.754;8.864;2024-03-08T08:55:14;42.73;;;27.17;;
8327;SDS011;4201;48.754;8.864;2024-03-08T08:57:40;38.67;;;23.20;;
8327;SDS011;4201;48.754;8.864;2024-03-08T09:00:09;36.17;;;23.50;;
8327;SDS011;4201;48.754;8.864;2024-03-08T09:02:39;33.37;;;21.03;;
8327;SDS011;4201;48.754;8.864;2024-03-08T09:05:06;38.73;;;24.20;;
8327;SDS011;4201;48.754;8.864;2024-03-08T09:07:32;36.73;;;24.30;;
8327;SDS011;4201;48.754;8.864;2024-03-08T09:09:59;40.73;;;23.87;;
8327;SDS011;4201;48.754;8.864;2024-03-08T09:12:25;40.50;;;25.73;;
8327;SDS011;4201;48.754;8.864;2024-03-08T09:14:51;31.07;;;21.10;;
8327;SDS011;4201;48.754;8.864;2024-03-08T09:17:19;38.90;;;24.97;;
8327;SDS011;4201;48.754;8.864;2024-03-08T09:19:46;36.23;;;23.63;;
8327;SDS011;4201;48.754;8.864;2024-03-08T09:22:12;35.03;;;22.37;;
8327;SDS011;4201;48.754;8.864;2024-03-08T09:24:38;38.50;;;23.80;;
8327;SDS011;4201;48.754;8.864;2024-03-08T09:27:06;35.20;;;21.77;;
8327;SDS011;4201;48.754;8.864;2024-03-08T09:29:34;33.47;;;20.27;;
8327;SDS011;4201;48.754;8.864;2024-03-08T09:32:01;31.53;;;21.40;;
8327;SDS011;4201;48.754;8.864;2024-03-08T09:34:29;37.43;;;23.53;;
8327;SDS011;4201;48.754;8.864;2024-03-08T09:36:56;35.80;;;21.77;;
8327;SDS011;4201;48.754;8.864;2024-03-08T09:39:22;34.30;;;21.77;;
8327;SDS011;4201;48.754;8.864;2024-03-08T09:41:49;35.93;;;22.97;;
8327;SDS011;4201;48.754;8.864;2024-03-08T09:44:15;40.47;;;23.83;;
8327;SDS011;4201;48.754;8.864;2024-03-08T09:46:41;36.10;;;23.13;;
8327;SDS011;4201;48.754;8.864;2024-03-08T09:49:08;33.90;;;22.90;;
8327;SDS011;4201;48.754;8.864;2024-03-08T09:51:37;35.70;;;22.40;;
8327;SDS011;4201;48.754;8.864;2024-03-08T09:54:05;32.60;;;22.80;;
8327;SDS011;4201;48.754;8.864;2024-03-08T09:56:31;37.80;;;22.67;;
8327;SDS011;4201;48.754;8.864;2024-03-08T09:58:58;37.67;;;24.30;;
8327;SDS011;4201;48.754;8.864;2024-03-08T10:01:41;35.63;;;22.93;;
8327;SDS011;4201;48.754;8.864;2024-03-08T10:04:09;39.50;;;23.60;;
8327;SDS011;4201;48.754;8.864;2024-03-08T10:06:35;40.10;;;23.83;;
8327;SDS011;4201;48.754;8.864;2024-03-08T10:09:03;38.00;;;24.10;;
8327;SDS011;4201;48.754;8.864;2024-03-08T10:11:31;30.47;;;20.53;;
8327;SDS011;4201;48.754;8.864;2024-03-08T10:13:57;35.33;;;22.70;;
8327;SDS011;4201;48.754;8.864;2024-03-08T10:16:25;38.27;;;23.17;;
8327;SDS011;4201;48.754;8.864;2024-03-08T10:18:51;35.57;;;23.70;;
8327;SDS011;4201;48.754;8.864;2024-03-08T10:21:18;34.70;;;22.00;;
8327;SDS011;4201;48.754;8.864;2024-03-08T10:23:45;32.80;;;21.90;;
8327;SDS011;4201;48.754;8.864;2024-03-08T10:26:14;35.00;;;22.27;;
8327;SDS011;4201;48.754;8.864;2024-03-08T10:28:41;33.47;;;22.83;;
8327;SDS011;4201;48.754;8.864;2024-03-08T10:31:08;40.77;;;23.80;;
8327;SDS011;4201;48.754;8.864;2024-03-08T10:33:34;39.20;;;23.80;;
8327;SDS011;4201;48.754;8.864;2024-03-08T10:36:03;41.20;;;25.23;;
8327;SDS011;4201;48.754;8.864;2024-03-08T10:38:30;33.50;;;22.23;;
8327;SDS011;4201;48.754;8.864;2024-03-08T10:40:57;32.13;;;21.60;;
8327;SDS011;4201;48.754;8.864;2024-03-08T10:43:25;30.53;;;20.77;;
8327;SDS011;4201;48.754;8.864;2024-03-08T10:45:56;32.87;;;21.03;;
8327;SDS011;4201;48.754;8.864;2024-03-08T10:48:26;37.43;;;22.10;;
8327;SDS011;4201;48.754;8.864;2024-03-08T10:50:56;32.93;;;20.47;;
8327;SDS011;4201;48.754;8.864;2024-03-08T10:53:22;33.40;;;23.57;;
8327;SDS011;4201;48.754;8.864;2024-03-08T10:55:49;35.20;;;23.10;;
8327;SDS011;4201;48.754;8.864;2024-03-08T10:58:18;35.40;;;21.63;;
8327;SDS011;4201;48.754;8.864;2024-03-08T11:00:46;29.30;;;20.23;;
8327;SDS011;4201;48.754;8.864;2024-03-08T11:05:56;36.43;;;21.97;;
8327;SDS011;4201;48.754;8.864;2024-03-08T11:08:22;33.90;;;21.60;;
8327;SDS011;4201;48.754;8.864;2024-03-08T11:10:49;42.93;;;25.43;;
8327;SDS011;4201;48.754;8.864;2024-03-08T11:13:33;31.63;;;21.43;;
8327;SDS011;4201;48.754;8.864;2024-03-08T11:16:01;36.70;;;23.27;;
8327;SDS011;4201;48.754;8.864;2024-03-08T11:18:31;33.77;;;19.93;;
8327;SDS011;4201;48.754;8.864;2024-03-08T11:20:58;33.10;;;19.70;;
8327;SDS011;4201;48.754;8.864;2024-03-08T11:23:24;29.43;;;20.77;;
8327;SDS011;4201;48.754;8.864;2024-03-08T11:25:53;33.00;;;20.67;;
8327;SDS011;4201;48.754;8.864;2024-03-08T11:28:20;29.10;;;19.47;;
8327;SDS011;4201;48.754;8.864;2024-03-08T11:30:47;27.93;;;19.00;;
8327;SDS011;4201;48.754;8.864;2024-03-08T11:33:35;33.83;;;20.10;;
8327;SDS011;4201;48.754;8.864;2024-03-08T11:36:02;31.90;;;21.70;;
8327;SDS011;4201;48.754;8.864;2024-03-08T11:38:31;31.20;;;20.80;;
8327;SDS011;4201;48.754;8.864;2024-03-08T11:40:58;26.90;;;19.73;;
8327;SDS011;4201;48.754;8.864;2024-03-08T11:43:24;32.57;;;21.13;;
8327;SDS011;4201;48.754;8.864;2024-03-08T11:45:50;28.53;;;17.73;;
8327;SDS011;4201;48.754;8.864;2024-03-08T11:48:18;30.50;;;21.67;;
8327;SDS011;4201;48.754;8.864;2024-03-08T11:50:45;40.77;;;25.57;;
8327;SDS011;4201;48.754;8.864;2024-03-08T11:53:14;31.67;;;21.40;;
8327;SDS011;4201;48.754;8.864;2024-03-08T11:55:41;27.57;;;19.20;;
8327;SDS011;4201;48.754;8.864;2024-03-08T11:58:07;24.87;;;18.80;;
8327;SDS011;4201;48.754;8.864;2024-03-08T12:00:36;26.90;;;19.57;;
8327;SDS011;4201;48.754;8.864;2024-03-08T12:03:06;27.20;;;19.50;;
8327;SDS011;4201;48.754;8.864;2024-03-08T12:05:34;24.43;;;17.87;;
8327;SDS011;4201;48.754;8.864;2024-03-08T12:08:02;29.10;;;19.60;;
8327;SDS011;4201;48.754;8.864;2024-03-08T12:10:30;26.17;;;18.00;;
8327;SDS011;4201;48.754;8.864;2024-03-08T12:12:57;26.87;;;17.57;;
8327;SDS011;4201;48.754;8.864;2024-03-08T12:15:24;25.47;;;18.70;;
8327;SDS011;4201;48.754;8.864;2024-03-08T12:17:51;25.10;;;18.60;;
8327;SDS011;4201;48.754;8.864;2024-03-08T12:20:18;24.83;;;17.53;;
8327;SDS011;4201;48.754;8.864;2024-03-08T12:22:46;26.80;;;19.60;;
8327;SDS011;4201;48.754;8.864;2024-03-08T12:25:15;24.47;;;16.90;;
8327;SDS011;4201;48.754;8.864;2024-03-08T12:27:41;21.43;;;16.80;;
8327;SDS011;4201;48.754;8.864;2024-03-08T12:30:18;26.50;;;18.37;;
8327;SDS011;4201;48.754;8.864;2024-03-08T12:32:46;25.47;;;18.03;;
8327;SDS011;4201;48.754;8.864;2024-03-08T12:35:13;26.73;;;19.17;;
8327;SDS011;4201;48.754;8.864;2024-03-08T12:37:39;22.27;;;15.10;;
8327;SDS011;4201;48.754;8.864;2024-03-08T12:40:06;27.40;;;19.50;;
8327;SDS011;4201;48.754;8.864;2024-03-08T12:42:35;23.70;;;17.17;;
8327;SDS011;4201;48.754;8.864;2024-03-08T12:45:03;26.70;;;16.77;;
8327;SDS011;4201;48.754;8.864;2024-03-08T12:47:34;21.47;;;15.73;;
8327;SDS011;4201;48.754;8.864;2024-03-08T12:50:00;27.67;;;18.70;;
8327;SDS011;4201;48.754;8.864;2024-03-08T12:52:27;32.33;;;20.70;;
8327;SDS011;4201;48.754;8.864;2024-03-08T12:54:55;30.23;;;20.23;;
8327;SDS011;4201;48.754;8.864;2024-03-08T12:57:21;23.73;;;17.37;;
8327;SDS011;4201;48.754;8.864;2024-03-08T12:59:53;26.97;;;17.57;;
8327;SDS011;4201;48.754;8.864;2024-03-08T13:02:20;21.80;;;16.83;;
8327;SDS011;4201;48.754;8.864;2024-03-08T13:04:46;24.60;;;15.57;;
8327;SDS011;4201;48.754;8.864;2024-03-08T13:07:20;25.20;;;16.90;;
8327;SDS011;4201;48.754;8.864;2024-03-08T13:09:46;23.60;;;17.07;;
8327;SDS011;4201;48.754;8.864;2024-03-08T13:12:14;28.00;;;19.97;;
8327;SDS011;4201;48.754;8.864;2024-03-08T13:14:40;25.00;;;18.80;;
8327;SDS011;4201;48.754;8.864;2024-03-08T13:17:08;24.57;;;17.80;;
8327;SDS011;4201;48.754;8.864;2024-03-08T13:19:36;26.93;;;18.20;;
8327;SDS011;4201;48.754;8.864;2024-03-08T13:22:03;22.50;;;16.20;;
8327;SDS011;4201;48.754;8.864;2024-03-08T13:24:30;25.97;;;20.33;;
8327;SDS011;4201;48.754;8.864;2024-03-08T13:26:56;27.17;;;17.73;;
8327;SDS011;4201;48.754;8.864;2024-03-08T13:29:23;30.33;;;18.50;;
8327;SDS011;4201;48.754;8.864;2024-03-08T13:31:50;26.70;;;18.53;;
8327;SDS011;4201;48.754;8.864;2024-03-08T13:34:18;27.93;;;18.43;;
8327;SDS011;4201;48.754;8.864;2024-03-08T13:36:52;29.57;;;19.30;;
8327;SDS011;4201;48.754;8.864;2024-03-08T13:39:24;25.70;;;18.17;;
8327;SDS011;4201;48.754;8.864;2024-03-08T13:41:51;26.70;;;19.83;;
8327;SDS011;4201;48.754;8.864;2024-03-08T13:44:17;24.43;;;17.67;;
8327;SDS011;4201;48.754;8.864;2024-03-08T13:46:43;28.03;;;15.63;;
8327;SDS011;4201;48.754;8.864;2024-03-08T13:49:10;30.47;;;19.87;;
8327;SDS011;4201;48.754;8.864;2024-03-08T13:51:37;30.27;;;17.87;;
8327;SDS011;4201;48.754;8.864;2024-03-08T13:54:04;25.30;;;17.13;;
8327;SDS011;4201;48.754;8.864;2024-03-08T13:56:31;29.33;;;19.43;;
8327;SDS011;4201;48.754;8.864;2024-03-08T13:58:58;25.50;;;18.97;;
8327;SDS011;4201;48.754;8.864;2024-03-08T14:01:24;29.13;;;19.40;;
8327;SDS011;4201;48.754;8.864;2024-03-08T14:03:51;28.40;;;20.40;;
8327;SDS011;4201;48.754;8.864;2024-03-08T14:06:17;29.30;;;20.50;;
8327;SDS011;4201;48.754;8.864;2024-03-08T14:08:45;30.40;;;21.20;;
8327;SDS011;4201;48.754;8.864;2024-03-08T14:11:11;30.27;;;19.67;;
8327;SDS011;4201;48.754;8.864;2024-03-08T14:13:41;29.90;;;19.53;;
8327;SDS011;4201;48.754;8.864;2024-03-08T14:16:09;28.93;;;20.33;;
8327;SDS011;4201;48.754;8.864;2024-03-08T14:18:35;30.97;;;21.83;;
8327;SDS011;4201;48.754;8.864;2024-03-08T14:21:02;28.20;;;20.87;;
8327;SDS011;4201;48.754;8.864;2024-03-08T14:23:29;29.97;;;20.87;;
8327;SDS011;4201;48.754;8.864;2024-03-08T14:25:56;33.17;;;20.07;;
8327;SDS011;4201;48.754;8.864;2024-03-08T14:28:24;26.13;;;19.20;;
8327;SDS011;4201;48.754;8.864;2024-03-08T14:30:53;32.80;;;19.73;;
8327;SDS011;4201;48.754;8.864;2024-03-08T14:33:19;27.20;;;19.17;;
8327;SDS011;4201;48.754;8.864;2024-03-08T14:35:45;27.47;;;18.67;;
8327;SDS011;4201;48.754;8.864;2024-03-08T14:38:12;30.47;;;20.07;;
8327;SDS011;4201;48.754;8.864;2024-03-08T14:40:38;27.40;;;19.30;;
8327;SDS011;4201;48.754;8.864;2024-03-08T14:43:06;29.30;;;20.13;;
8327;SDS011;4201;48.754;8.864;2024-03-08T14:45:33;34.30;;;21.20;;
8327;SDS011;4201;48.754;8.864;2024-03-08T14:47:59;28.93;;;19.93;;
8327;SDS011;4201;48.754;8.864;2024-03-08T14:50:27;30.77;;;19.10;;
8327;SDS011;4201;48.754;8.864;2024-03-08T14:52:53;31.50;;;20.07;;
8327;SDS011;4201;48.754;8.864;2024-03-08T14:55:20;29.67;;;19.43;;
8327;SDS011;4201;48.754;8.864;2024-03-08T14:57:47;29.97;;;20.77;;
8327;SDS011;4201;48.754;8.864;2024-03-08T15:00:17;30.50;;;19.17;;
8327;SDS011;4201;48.754;8.864;2024-03-08T15:02:51;29.70;;;20.50;;
8327;SDS011;4201;48.754;8.864;2024-03-08T15:05:18;30.10;;;21.57;;